createdAt,value
2022-12-31T00:00:07.217Z,999.49
2022-12-31T00:00:53.166Z,999.80
2022-12-31T00:01:39.098Z,999.69
2022-12-31T00:02:25.195Z,999.59
2022-12-31T00:03:11.305Z,999.69
2022-12-31T00:03:57.139Z,999.69
2022-12-31T00:04:43.140Z,999.49
2022-12-31T00:05:29.146Z,999.49
2022-12-31T00:06:15.264Z,999.69
2022-12-31T00:07:01.148Z,999.69
2022-12-31T00:07:47.122Z,999.69
2022-12-31T00:08:33.153Z,999.80
2022-12-31T00:09:19.194Z,999.49
2022-12-31T00:10:05.113Z,999.49
2022-12-31T00:10:51.176Z,999.80
2022-12-31T00:11:37.119Z,999.59
2022-12-31T00:12:23.193Z,999.69
2022-12-31T00:13:09.148Z,999.69
2022-12-31T00:13:55.130Z,999.59
2022-12-31T00:14:41.139Z,999.39
2022-12-31T00:15:27.307Z,999.49
2022-12-31T00:16:13.101Z,999.29
2022-12-31T00:16:59.174Z,999.29
2022-12-31T00:17:45.123Z,999.59
2022-12-31T00:18:31.134Z,999.59
2022-12-31T00:19:17.139Z,999.59
2022-12-31T00:20:03.520Z,999.59
2022-12-31T00:20:49.168Z,999.80
2022-12-31T00:21:35.126Z,999.59
2022-12-31T00:22:21.151Z,999.69
2022-12-31T00:23:07.173Z,999.69
2022-12-31T00:23:53.254Z,999.39
2022-12-31T00:24:39.176Z,999.59
2022-12-31T00:25:25.217Z,999.49
2022-12-31T00:26:11.128Z,999.80
2022-12-31T00:26:57.184Z,999.80
2022-12-31T00:27:43.145Z,999.59
2022-12-31T00:28:29.225Z,999.80
2022-12-31T00:29:15.298Z,999.69
2022-12-31T00:30:04.798Z,999.69
2022-12-31T00:30:47.229Z,999.69
2022-12-31T00:31:33.183Z,999.49
2022-12-31T00:32:19.228Z,999.80
2022-12-31T00:33:05.297Z,999.80
2022-12-31T00:33:51.186Z,999.59
2022-12-31T00:34:37.129Z,999.59
2022-12-31T00:35:23.257Z,999.90
2022-12-31T00:36:09.222Z,999.90
2022-12-31T00:36:55.191Z,999.49
2022-12-31T00:37:41.165Z,999.90
2022-12-31T00:38:27.265Z,999.69
2022-12-31T00:39:13.227Z,999.69
2022-12-31T00:39:59.232Z,999.69
2022-12-31T00:40:45.194Z,999.69
2022-12-31T00:41:31.291Z,999.69
2022-12-31T00:42:17.158Z,999.80
2022-12-31T00:43:03.278Z,999.80
2022-12-31T00:43:49.255Z,999.59
2022-12-31T00:44:35.202Z,999.49
2022-12-31T00:45:21.319Z,999.69
2022-12-31T00:46:07.283Z,999.69
2022-12-31T00:46:53.296Z,999.80
2022-12-31T00:47:39.210Z,999.49
2022-12-31T00:48:25.214Z,999.49
2022-12-31T00:49:11.239Z,999.80
2022-12-31T00:49:57.208Z,999.80
2022-12-31T00:50:43.236Z,999.69
2022-12-31T00:51:29.281Z,999.80
2022-12-31T00:52:15.228Z,999.80
2022-12-31T00:53:01.222Z,999.80
2022-12-31T00:53:47.226Z,999.69
2022-12-31T00:54:33.237Z,999.90
2022-12-31T00:55:19.281Z,999.80
2022-12-31T00:56:05.257Z,999.80
2022-12-31T00:56:51.309Z,999.59
2022-12-31T00:57:37.346Z,999.90
2022-12-31T00:58:23.333Z,999.59
2022-12-31T00:59:09.272Z,999.59
2022-12-31T00:59:55.268Z,999.59
2022-12-31T01:00:41.462Z,999.69
2022-12-31T01:01:27.644Z,999.69
2022-12-31T01:02:13.586Z,999.90
2022-12-31T01:02:59.399Z,999.90
2022-12-31T01:03:45.240Z,999.69
2022-12-31T01:04:31.358Z,1000.10
2022-12-31T01:05:17.279Z,999.80
2022-12-31T01:06:03.404Z,999.80
2022-12-31T01:06:49.417Z,1000.10
2022-12-31T01:07:35.405Z,999.90
2022-12-31T01:08:21.333Z,1000.00
2022-12-31T01:09:07.310Z,1000.00
2022-12-31T01:09:53.357Z,1000.00
2022-12-31T01:10:39.502Z,999.90
2022-12-31T01:11:25.511Z,1000.00
2022-12-31T01:12:11.289Z,1000.10
2022-12-31T01:12:57.310Z,1000.10
2022-12-31T01:13:43.295Z,1000.00
2022-12-31T01:14:29.315Z,1000.00
2022-12-31T01:15:15.433Z,1000.00
2022-12-31T01:16:01.352Z,1000.00
2022-12-31T01:16:47.295Z,1000.00
2022-12-31T01:17:33.396Z,999.69
2022-12-31T01:18:19.355Z,1000.20
2022-12-31T01:19:05.311Z,1000.20
2022-12-31T01:19:51.334Z,1000.30
2022-12-31T01:20:37.328Z,1000.30
2022-12-31T01:21:23.355Z,1000.10
2022-12-31T01:22:09.329Z,1000.10
2022-12-31T01:22:55.445Z,1000.41
2022-12-31T01:23:41.399Z,1000.41
2022-12-31T01:24:27.317Z,1000.30
2022-12-31T01:25:13.370Z,1000.41
2022-12-31T01:25:59.418Z,1000.41
2022-12-31T01:26:45.373Z,1000.30
2022-12-31T01:27:31.352Z,1000.30
2022-12-31T01:28:17.312Z,1000.30
2022-12-31T01:29:03.439Z,1000.30
2022-12-31T01:29:49.381Z,1000.71
2022-12-31T01:30:35.598Z,1000.61
2022-12-31T01:31:21.555Z,1000.51
2022-12-31T01:32:07.455Z,1000.51
2022-12-31T01:32:53.424Z,1000.51
2022-12-31T01:33:39.579Z,1000.51
2022-12-31T01:34:25.380Z,1000.61
2022-12-31T01:35:11.345Z,1000.51
2022-12-31T01:35:57.556Z,1000.51
2022-12-31T01:36:43.448Z,1000.71
2022-12-31T01:37:29.406Z,1000.51
2022-12-31T01:38:15.420Z,1000.61
2022-12-31T01:39:01.426Z,1000.61
2022-12-31T01:39:47.382Z,1000.51
2022-12-31T01:40:33.436Z,1000.71
2022-12-31T01:41:19.413Z,1000.51
2022-12-31T01:42:05.430Z,1000.51
2022-12-31T01:42:51.402Z,1000.71
2022-12-31T01:43:37.436Z,1000.81
2022-12-31T01:44:23.513Z,1000.41
2022-12-31T01:45:09.531Z,1000.41
2022-12-31T01:45:55.554Z,1000.51
2022-12-31T01:46:41.517Z,1000.61
2022-12-31T01:47:27.462Z,1000.61
2022-12-31T01:48:13.395Z,1000.51
2022-12-31T01:48:59.446Z,1000.51
2022-12-31T01:49:45.402Z,1000.71
2022-12-31T01:50:31.490Z,1000.51
2022-12-31T01:51:17.477Z,1000.71
2022-12-31T01:52:03.501Z,1000.71
2022-12-31T01:52:49.502Z,1000.71
2022-12-31T01:53:39.322Z,1000.61
2022-12-31T01:54:21.427Z,1000.41
2022-12-31T01:55:07.694Z,1000.41
2022-12-31T01:55:53.460Z,1000.71
2022-12-31T01:56:39.546Z,1000.61
2022-12-31T01:57:25.489Z,1000.51
2022-12-31T01:58:11.471Z,1000.71
2022-12-31T01:58:57.549Z,1000.71
2022-12-31T01:59:43.403Z,1000.81
2022-12-31T02:00:29.552Z,1000.51
2022-12-31T02:01:15.546Z,1000.61
2022-12-31T02:02:01.565Z,1000.61
2022-12-31T02:02:47.617Z,1000.61
2022-12-31T02:03:33.469Z,1000.81
2022-12-31T02:04:19.469Z,1000.51
2022-12-31T02:05:05.555Z,1000.51
2022-12-31T02:05:51.534Z,1000.81
2022-12-31T02:06:37.484Z,1000.81
2022-12-31T02:07:23.596Z,1000.51
2022-12-31T02:08:09.490Z,1000.51
2022-12-31T02:08:55.403Z,1000.61
2022-12-31T02:09:41.478Z,1000.61
2022-12-31T02:10:27.479Z,1000.61
2022-12-31T02:11:13.454Z,1000.61
2022-12-31T02:11:59.474Z,1000.61
2022-12-31T02:12:45.449Z,1000.81
2022-12-31T02:13:31.456Z,1000.51
2022-12-31T02:14:17.535Z,1001.01
2022-12-31T02:15:03.780Z,1001.01
2022-12-31T02:15:49.604Z,1000.81
2022-12-31T02:16:35.469Z,1000.61
2022-12-31T02:17:21.455Z,1000.81
2022-12-31T02:18:07.581Z,1000.81
2022-12-31T02:18:53.611Z,1000.81
2022-12-31T02:19:39.536Z,1000.81
2022-12-31T02:20:25.577Z,1000.81
2022-12-31T02:21:11.488Z,1000.71
2022-12-31T02:21:57.488Z,1000.71
2022-12-31T02:22:43.525Z,1000.71
2022-12-31T02:23:29.542Z,1000.61
2022-12-31T02:24:15.527Z,1000.71
2022-12-31T02:25:01.503Z,1000.71
2022-12-31T02:25:47.464Z,1000.61
2022-12-31T02:26:33.527Z,1000.71
2022-12-31T02:27:19.586Z,1000.61
2022-12-31T02:28:05.485Z,1000.61
2022-12-31T02:28:51.597Z,1000.41
2022-12-31T02:29:37.579Z,1000.51
2022-12-31T02:30:23.686Z,1000.41
2022-12-31T02:31:09.632Z,1000.41
2022-12-31T02:31:55.520Z,1000.81
2022-12-31T02:32:41.568Z,1000.30
2022-12-31T02:33:27.736Z,1000.41
2022-12-31T02:34:13.583Z,1000.41
2022-12-31T02:34:59.591Z,1000.41
2022-12-31T02:35:45.510Z,1000.20
2022-12-31T02:36:31.589Z,1000.41
2022-12-31T02:37:17.645Z,1000.71
2022-12-31T02:38:03.599Z,1000.71
2022-12-31T02:38:49.635Z,1000.30
2022-12-31T02:39:35.671Z,1000.41
2022-12-31T02:40:21.555Z,1000.51
2022-12-31T02:41:07.588Z,1000.51
2022-12-31T02:41:53.643Z,1000.81
2022-12-31T02:42:39.612Z,1000.61
2022-12-31T02:43:25.539Z,1000.61
2022-12-31T02:44:11.545Z,1000.61
2022-12-31T02:44:57.542Z,1000.61
2022-12-31T02:45:43.683Z,1000.41
2022-12-31T02:46:29.661Z,1000.51
2022-12-31T02:47:15.582Z,1000.61
2022-12-31T02:48:01.619Z,1000.61
2022-12-31T02:48:47.579Z,1000.61
2022-12-31T02:49:33.631Z,1000.61
2022-12-31T02:50:19.613Z,1000.61
2022-12-31T02:51:05.613Z,1000.61
2022-12-31T02:51:51.587Z,1000.61
2022-12-31T02:52:37.737Z,1000.81
2022-12-31T02:53:23.590Z,1000.51
2022-12-31T02:54:09.674Z,1000.51
2022-12-31T02:54:55.576Z,1001.08
2022-12-31T02:55:41.575Z,1000.81
2022-12-31T02:56:27.733Z,1000.91
2022-12-31T02:57:13.659Z,1000.71
2022-12-31T02:57:59.714Z,1000.71
2022-12-31T02:58:45.652Z,1000.81
2022-12-31T02:59:31.784Z,1000.61
2022-12-31T03:00:17.730Z,1000.61
2022-12-31T03:01:03.788Z,1000.61
2022-12-31T03:01:49.842Z,1000.71
2022-12-31T03:02:35.685Z,1000.91
2022-12-31T03:03:21.617Z,1000.91
2022-12-31T03:04:07.681Z,1000.91
2022-12-31T03:04:53.715Z,1000.71
2022-12-31T03:05:39.697Z,1000.51
2022-12-31T03:06:25.645Z,1000.81
2022-12-31T03:07:11.660Z,1000.71
2022-12-31T03:07:57.659Z,1000.71
2022-12-31T03:08:43.701Z,1000.71
2022-12-31T03:09:29.732Z,1000.71
2022-12-31T03:10:15.620Z,1000.81
2022-12-31T03:11:01.717Z,1000.81
2022-12-31T03:11:47.699Z,1000.51
2022-12-31T03:12:33.686Z,1000.61
2022-12-31T03:13:19.790Z,1000.71
2022-12-31T03:14:05.636Z,1000.71
2022-12-31T03:14:51.692Z,1000.81
2022-12-31T03:15:37.794Z,1000.61
2022-12-31T03:16:23.821Z,1000.81
2022-12-31T03:17:09.780Z,1000.81
2022-12-31T03:17:56.897Z,1000.61
2022-12-31T03:18:42.618Z,1000.81
2022-12-31T03:19:27.655Z,1000.81
2022-12-31T03:20:13.800Z,1000.71
2022-12-31T03:20:59.685Z,1000.71
2022-12-31T03:21:45.695Z,1000.91
2022-12-31T03:22:31.705Z,1000.81
2022-12-31T03:23:17.712Z,1000.71
2022-12-31T03:24:03.722Z,1000.71
2022-12-31T03:24:49.775Z,1000.51
2022-12-31T03:25:35.845Z,1001.01
2022-12-31T03:26:21.727Z,1000.91
2022-12-31T03:27:07.707Z,1000.91
2022-12-31T03:27:53.803Z,1000.81
2022-12-31T03:28:39.829Z,1000.71
2022-12-31T03:29:25.717Z,1000.81
2022-12-31T03:30:11.758Z,1000.61
2022-12-31T03:30:57.795Z,1000.61
2022-12-31T03:31:43.766Z,1000.81
2022-12-31T03:32:29.765Z,1000.71
2022-12-31T03:33:15.710Z,1000.71
2022-12-31T03:34:02.010Z,1000.71
2022-12-31T03:34:47.839Z,1000.61
2022-12-31T03:35:33.705Z,1000.71
2022-12-31T03:36:19.771Z,1000.91
2022-12-31T03:37:05.720Z,1000.91
2022-12-31T03:37:51.716Z,1000.61
2022-12-31T03:38:37.775Z,1000.71
2022-12-31T03:39:23.806Z,1000.71
2022-12-31T03:40:09.788Z,1000.71
2022-12-31T03:40:55.759Z,1000.71
2022-12-31T03:41:41.735Z,1000.41
2022-12-31T03:42:27.812Z,1000.61
2022-12-31T03:43:13.800Z,1000.81
2022-12-31T03:43:59.767Z,1000.81
2022-12-31T03:44:45.762Z,1000.81
2022-12-31T03:45:31.881Z,1000.81
2022-12-31T03:46:17.810Z,1000.71
2022-12-31T03:47:03.772Z,1000.71
2022-12-31T03:47:50.014Z,1000.81
2022-12-31T03:48:35.743Z,1000.91
2022-12-31T03:49:21.888Z,1000.81
2022-12-31T03:50:07.738Z,1000.81
2022-12-31T03:50:53.792Z,1000.71
2022-12-31T03:51:39.775Z,1000.71
2022-12-31T03:52:25.768Z,1000.71
2022-12-31T03:53:11.832Z,1000.81
2022-12-31T03:53:57.816Z,1000.81
2022-12-31T03:54:43.876Z,1000.71
2022-12-31T03:55:29.890Z,1000.81
2022-12-31T03:56:15.912Z,1000.81
2022-12-31T03:57:01.804Z,1000.81
2022-12-31T03:57:47.880Z,1000.91
2022-12-31T03:58:33.848Z,1000.61
2022-12-31T03:59:19.947Z,1000.71
2022-12-31T04:00:05.989Z,1000.71
2022-12-31T04:00:52.030Z,1000.71
2022-12-31T04:01:38.042Z,1000.81
2022-12-31T04:02:28.631Z,1001.01
2022-12-31T04:03:09.987Z,1001.01
2022-12-31T04:03:55.785Z,1000.71
2022-12-31T04:04:41.817Z,1001.01
2022-12-31T04:05:27.775Z,1000.81
2022-12-31T04:06:13.822Z,1000.71
2022-12-31T04:06:59.828Z,1000.71
2022-12-31T04:07:45.799Z,1000.71
2022-12-31T04:08:31.896Z,1000.61
2022-12-31T04:09:17.810Z,1001.01
2022-12-31T04:10:04.000Z,1001.01
2022-12-31T04:10:49.844Z,1001.01
2022-12-31T04:11:35.868Z,1000.91
2022-12-31T04:12:21.901Z,1000.91
2022-12-31T04:13:07.865Z,1000.91
2022-12-31T04:13:53.854Z,1000.91
2022-12-31T04:14:39.890Z,1001.01
2022-12-31T04:15:25.890Z,1001.18
2022-12-31T04:16:11.891Z,1000.91
2022-12-31T04:16:57.908Z,1000.91
2022-12-31T04:17:43.918Z,1000.81
2022-12-31T04:18:29.922Z,1000.71
2022-12-31T04:19:15.884Z,1000.81
2022-12-31T04:20:01.850Z,1000.81
2022-12-31T04:20:47.892Z,1000.81
2022-12-31T04:21:35.261Z,1000.81
2022-12-31T04:22:19.933Z,1000.71
2022-12-31T04:23:05.915Z,1000.71
2022-12-31T04:23:51.906Z,1000.91
2022-12-31T04:24:37.875Z,1001.01
2022-12-31T04:25:23.924Z,1001.01
2022-12-31T04:26:09.867Z,1001.01
2022-12-31T04:26:55.965Z,1001.29
2022-12-31T04:27:41.914Z,1001.01
2022-12-31T04:28:27.955Z,1000.71
2022-12-31T04:29:13.880Z,1000.81
2022-12-31T04:29:59.931Z,1000.81
2022-12-31T04:30:45.953Z,1000.91
2022-12-31T04:31:31.883Z,1001.01
2022-12-31T04:32:17.871Z,1001.01
2022-12-31T04:33:04.049Z,1001.01
2022-12-31T04:33:49.927Z,1000.81
2022-12-31T04:34:35.939Z,1000.91
2022-12-31T04:35:21.975Z,1000.91
2022-12-31T04:36:07.948Z,1000.91
2022-12-31T04:36:54.031Z,1001.01
2022-12-31T04:37:39.936Z,1001.01
2022-12-31T04:38:25.963Z,1001.01
2022-12-31T04:39:12.137Z,1001.01
2022-12-31T04:40:03.529Z,1001.01
2022-12-31T04:40:43.937Z,1001.01
2022-12-31T04:41:29.916Z,1001.18
2022-12-31T04:42:15.891Z,1001.08
2022-12-31T04:43:01.891Z,1001.08
2022-12-31T04:43:47.899Z,1001.08
2022-12-31T04:44:33.922Z,1001.18
2022-12-31T04:45:20.007Z,1001.01
2022-12-31T04:46:06.038Z,1001.01
2022-12-31T04:46:51.908Z,1000.91
2022-12-31T04:47:37.947Z,1001.08
2022-12-31T04:48:23.920Z,1001.08
2022-12-31T04:49:09.952Z,1001.08
2022-12-31T04:49:55.978Z,1001.08
2022-12-31T04:50:41.957Z,1001.08
2022-12-31T04:51:27.902Z,1001.29
2022-12-31T04:52:14.068Z,1001.01
2022-12-31T04:52:59.948Z,1001.01
2022-12-31T04:53:45.906Z,1001.08
2022-12-31T04:54:32.046Z,1000.91
2022-12-31T04:55:17.948Z,1001.18
2022-12-31T04:56:03.981Z,1001.18
2022-12-31T04:56:49.978Z,1001.01
2022-12-31T04:57:35.947Z,1001.18
2022-12-31T04:58:21.929Z,1001.08
2022-12-31T04:59:07.970Z,1001.08
2022-12-31T04:59:54.000Z,1001.01
2022-12-31T05:00:40.016Z,1001.29
2022-12-31T05:01:26.032Z,1001.08
2022-12-31T05:02:12.099Z,1001.29
2022-12-31T05:02:58.105Z,1001.29
2022-12-31T05:03:43.967Z,1001.39
2022-12-31T05:04:30.036Z,1001.29
2022-12-31T05:05:16.002Z,1001.18
2022-12-31T05:06:02.193Z,1001.18
2022-12-31T05:06:48.016Z,1001.29
2022-12-31T05:07:34.058Z,1001.69
2022-12-31T05:08:20.001Z,1001.18
2022-12-31T05:09:05.991Z,1001.18
2022-12-31T05:09:51.965Z,1001.18
2022-12-31T05:10:38.060Z,1001.39
2022-12-31T05:11:24.003Z,1001.18
2022-12-31T05:12:10.050Z,1001.18
2022-12-31T05:12:56.025Z,1001.18
2022-12-31T05:13:41.962Z,1001.39
2022-12-31T05:14:28.005Z,1001.18
2022-12-31T05:15:14.137Z,1001.18
2022-12-31T05:16:00.053Z,1001.18
2022-12-31T05:16:46.089Z,1001.39
2022-12-31T05:17:32.023Z,1001.29
2022-12-31T05:18:18.035Z,1001.29
2022-12-31T05:19:04.078Z,1001.29
2022-12-31T05:19:50.056Z,1001.29
2022-12-31T05:20:36.007Z,1001.18
2022-12-31T05:21:22.000Z,1001.29
2022-12-31T05:22:08.065Z,1001.29
2022-12-31T05:22:54.280Z,1001.01
2022-12-31T05:23:40.057Z,1001.08
2022-12-31T05:24:25.959Z,1001.18
2022-12-31T05:25:12.062Z,1001.39
2022-12-31T05:25:58.033Z,1001.39
2022-12-31T05:26:44.053Z,1001.49
2022-12-31T05:27:30.155Z,1001.39
2022-12-31T05:28:16.044Z,1001.39
2022-12-31T05:29:02.195Z,1001.39
2022-12-31T05:29:48.111Z,1001.59
2022-12-31T05:30:34.166Z,1001.01
2022-12-31T05:31:20.104Z,1001.29
2022-12-31T05:32:06.106Z,1001.29
2022-12-31T05:32:52.082Z,1001.49
2022-12-31T05:33:38.130Z,1001.18
2022-12-31T05:34:24.113Z,1001.29
2022-12-31T05:35:10.047Z,1001.29
2022-12-31T05:35:56.211Z,1001.08
2022-12-31T05:36:42.064Z,1001.39
2022-12-31T05:37:28.189Z,1001.59
2022-12-31T05:38:14.121Z,1001.39
2022-12-31T05:39:00.080Z,1001.39
2022-12-31T05:39:46.045Z,1001.39
2022-12-31T05:40:32.091Z,1001.49
2022-12-31T05:41:18.055Z,1001.59
2022-12-31T05:42:04.101Z,1001.59
2022-12-31T05:42:50.042Z,1001.39
2022-12-31T05:43:36.286Z,1001.59
2022-12-31T05:44:22.168Z,1001.69
2022-12-31T05:45:08.146Z,1001.69
2022-12-31T05:45:54.138Z,1001.39
2022-12-31T05:46:40.154Z,1001.59
2022-12-31T05:47:26.165Z,1001.49
2022-12-31T05:48:12.111Z,1001.69
2022-12-31T05:48:58.168Z,1001.69
2022-12-31T05:49:44.087Z,1001.39
2022-12-31T05:50:30.116Z,1001.59
2022-12-31T05:51:16.200Z,1001.49
2022-12-31T05:52:02.150Z,1001.49
2022-12-31T05:52:48.107Z,1001.59
2022-12-31T05:53:34.134Z,1001.59
2022-12-31T05:54:20.099Z,1001.69
2022-12-31T05:55:06.182Z,1001.69
2022-12-31T05:55:52.145Z,1001.69
2022-12-31T05:56:38.126Z,1001.69
2022-12-31T05:57:24.124Z,1001.49
2022-12-31T05:58:10.188Z,1001.49
2022-12-31T05:58:56.117Z,1001.49
2022-12-31T05:59:42.063Z,1001.49
2022-12-31T06:00:28.174Z,1001.39
2022-12-31T06:01:14.211Z,1001.39
2022-12-31T06:02:00.180Z,1001.39
2022-12-31T06:02:46.156Z,1001.59
2022-12-31T06:03:32.171Z,1001.49
2022-12-31T06:04:18.114Z,1001.39
2022-12-31T06:05:04.203Z,1001.39
2022-12-31T06:05:50.144Z,1001.69
2022-12-31T06:06:36.124Z,1001.69
2022-12-31T06:07:22.131Z,1001.39
2022-12-31T06:08:08.178Z,1001.39
2022-12-31T06:08:54.212Z,1001.59
2022-12-31T06:09:40.182Z,1001.69
2022-12-31T06:10:26.126Z,1001.39
2022-12-31T06:11:12.164Z,1001.69
2022-12-31T06:11:58.169Z,1001.69
2022-12-31T06:12:44.169Z,1001.59
2022-12-31T06:13:30.127Z,1001.49
2022-12-31T06:14:16.205Z,1001.90
2022-12-31T06:15:02.395Z,1001.90
2022-12-31T06:15:48.202Z,1001.69
2022-12-31T06:16:34.196Z,1001.49
2022-12-31T06:17:20.197Z,1001.90
2022-12-31T06:18:06.167Z,1001.90
2022-12-31T06:18:52.175Z,1001.79
2022-12-31T06:19:38.272Z,1001.79
2022-12-31T06:20:24.137Z,1001.79
2022-12-31T06:21:10.149Z,1001.79
2022-12-31T06:21:56.127Z,1001.79
2022-12-31T06:22:42.240Z,1001.79
2022-12-31T06:23:28.144Z,1001.79
2022-12-31T06:24:14.227Z,1001.90
2022-12-31T06:25:00.167Z,1001.90
2022-12-31T06:25:46.177Z,1002.10
2022-12-31T06:26:32.178Z,1001.79
2022-12-31T06:27:18.168Z,1001.69
2022-12-31T06:28:04.193Z,1001.69
2022-12-31T06:28:50.298Z,1001.79
2022-12-31T06:29:36.220Z,1001.69
2022-12-31T06:30:22.330Z,1001.79
2022-12-31T06:31:08.397Z,1001.79
2022-12-31T06:31:54.228Z,1001.59
2022-12-31T06:32:40.137Z,1001.69
2022-12-31T06:33:26.260Z,1001.90
2022-12-31T06:34:12.217Z,1001.79
2022-12-31T06:34:58.215Z,1001.79
2022-12-31T06:35:44.208Z,1001.59
2022-12-31T06:36:30.284Z,1001.90
2022-12-31T06:37:16.279Z,1002.00
2022-12-31T06:38:02.285Z,1002.00
2022-12-31T06:38:48.226Z,1001.79
2022-12-31T06:39:34.263Z,1001.90
2022-12-31T06:40:20.203Z,1001.79
2022-12-31T06:41:06.237Z,1001.79
2022-12-31T06:41:52.203Z,1001.69
2022-12-31T06:42:38.228Z,1002.00
2022-12-31T06:43:24.262Z,1001.90
2022-12-31T06:44:10.214Z,1001.90
2022-12-31T06:44:56.340Z,1002.10
2022-12-31T06:45:42.343Z,1001.79
2022-12-31T06:46:28.278Z,1001.69
2022-12-31T06:47:14.222Z,1001.90
2022-12-31T06:48:00.265Z,1001.90
2022-12-31T06:48:46.217Z,1001.69
2022-12-31T06:49:32.255Z,1002.10
2022-12-31T06:50:18.315Z,1002.10
2022-12-31T06:51:04.210Z,1002.10
2022-12-31T06:51:50.255Z,1002.10
2022-12-31T06:52:36.256Z,1002.20
2022-12-31T06:53:22.238Z,1002.00
2022-12-31T06:54:08.269Z,1002.00
2022-12-31T06:54:54.311Z,1002.00
2022-12-31T06:55:40.338Z,1001.90
2022-12-31T06:56:33.033Z,1002.10
2022-12-31T06:57:12.237Z,1002.10
2022-12-31T06:57:58.264Z,1002.10
2022-12-31T06:58:44.317Z,1002.20
2022-12-31T06:59:30.336Z,1002.30
2022-12-31T07:00:16.340Z,1002.20
2022-12-31T07:01:02.330Z,1002.20
2022-12-31T07:01:48.374Z,1002.00
2022-12-31T07:02:34.364Z,1002.20
2022-12-31T07:03:20.350Z,1002.20
2022-12-31T07:04:06.268Z,1002.20
2022-12-31T07:04:52.259Z,1002.20
2022-12-31T07:05:38.333Z,1002.20
2022-12-31T07:06:24.404Z,1001.90
2022-12-31T07:07:10.298Z,1001.90
2022-12-31T07:07:56.318Z,1001.90
2022-12-31T07:08:42.351Z,1002.10
2022-12-31T07:09:28.341Z,1002.10
2022-12-31T07:10:14.356Z,1001.90
2022-12-31T07:11:00.418Z,1001.90
2022-12-31T07:11:46.264Z,1002.10
2022-12-31T07:12:32.346Z,1002.10
2022-12-31T07:13:18.339Z,1002.00
2022-12-31T07:14:04.282Z,1002.00
2022-12-31T07:14:50.335Z,1001.90
2022-12-31T07:15:36.402Z,1002.00
2022-12-31T07:16:22.348Z,1002.00
2022-12-31T07:17:08.327Z,1002.00
2022-12-31T07:17:54.325Z,1002.61
2022-12-31T07:18:40.346Z,1001.79
2022-12-31T07:19:26.403Z,1002.00
2022-12-31T07:20:12.424Z,1002.20
2022-12-31T07:20:58.423Z,1002.20
2022-12-31T07:21:44.379Z,1002.40
2022-12-31T07:22:30.379Z,1002.20
2022-12-31T07:23:16.367Z,1002.20
2022-12-31T07:24:02.324Z,1002.20
2022-12-31T07:24:48.383Z,1002.00
2022-12-31T07:25:34.344Z,1002.61
2022-12-31T07:26:20.423Z,1002.40
2022-12-31T07:27:06.351Z,1002.40
2022-12-31T07:27:52.323Z,1002.50
2022-12-31T07:28:38.360Z,1002.30
2022-12-31T07:29:24.413Z,1002.50
2022-12-31T07:30:10.423Z,1002.50
2022-12-31T07:30:56.408Z,1002.30
2022-12-31T07:31:42.517Z,1002.30
2022-12-31T07:32:28.486Z,1002.30
2022-12-31T07:33:15.037Z,1002.50
2022-12-31T07:34:00.410Z,1002.50
2022-12-31T07:34:46.338Z,1002.40
2022-12-31T07:35:35.271Z,1002.30
2022-12-31T07:36:18.404Z,1002.40
2022-12-31T07:37:04.338Z,1002.40
2022-12-31T07:37:50.416Z,1002.40
2022-12-31T07:38:36.563Z,1002.61
2022-12-31T07:39:22.433Z,1002.50
2022-12-31T07:40:08.472Z,1002.50
2022-12-31T07:40:55.938Z,1002.40
2022-12-31T07:41:40.429Z,1002.50
2022-12-31T07:42:26.507Z,1002.61
2022-12-31T07:43:12.506Z,1002.50
2022-12-31T07:43:58.562Z,1002.50
2022-12-31T07:44:44.478Z,1002.40
2022-12-31T07:45:30.534Z,1002.61
2022-12-31T07:46:16.539Z,1002.61
2022-12-31T07:47:02.474Z,1002.61
2022-12-31T07:47:48.495Z,1002.50
2022-12-31T07:48:34.498Z,1002.50
2022-12-31T07:49:20.540Z,1002.81
2022-12-31T07:50:06.565Z,1002.81
2022-12-31T07:50:52.480Z,1002.50
2022-12-31T07:51:38.585Z,1002.50
2022-12-31T07:52:24.578Z,1002.91
2022-12-31T07:53:10.525Z,1002.91
2022-12-31T07:53:56.574Z,1002.61
2022-12-31T07:54:42.603Z,1002.61
2022-12-31T07:55:28.573Z,1002.81
2022-12-31T07:56:15.309Z,1002.50
2022-12-31T07:57:00.529Z,1002.50
2022-12-31T07:57:46.563Z,1002.81
2022-12-31T07:58:32.575Z,1002.81
2022-12-31T07:59:24.053Z,1002.81
2022-12-31T08:00:04.606Z,1002.81
2022-12-31T08:00:50.574Z,1002.81
2022-12-31T08:01:36.789Z,1002.71
2022-12-31T08:02:22.617Z,1002.81
2022-12-31T08:03:08.728Z,1002.81
2022-12-31T08:03:54.551Z,1002.81
2022-12-31T08:04:40.519Z,1002.81
2022-12-31T08:05:26.670Z,1002.81
2022-12-31T08:06:12.648Z,1003.01
2022-12-31T08:06:58.586Z,1003.01
2022-12-31T08:07:44.579Z,1002.81
2022-12-31T08:08:30.609Z,1002.91
2022-12-31T08:09:16.615Z,1002.81
2022-12-31T08:10:02.664Z,1002.81
2022-12-31T08:10:48.588Z,1002.91
2022-12-31T08:11:34.639Z,1002.91
2022-12-31T08:12:20.568Z,1003.11
2022-12-31T08:13:06.651Z,1003.11
2022-12-31T08:13:52.586Z,1002.91
2022-12-31T08:14:38.668Z,1003.11
2022-12-31T08:15:30.136Z,1003.01
2022-12-31T08:16:10.614Z,1003.01
2022-12-31T08:16:56.645Z,1003.01
2022-12-31T08:17:42.632Z,1003.01
2022-12-31T08:18:28.624Z,1003.11
2022-12-31T08:19:15.282Z,1003.11
2022-12-31T08:20:00.701Z,1003.11
2022-12-31T08:20:46.693Z,1003.01
2022-12-31T08:21:35.049Z,1003.39
2022-12-31T08:22:18.653Z,1003.11
2022-12-31T08:23:04.708Z,1003.11
2022-12-31T08:23:50.684Z,1003.11
2022-12-31T08:24:36.630Z,1003.11
2022-12-31T08:25:22.669Z,1003.01
2022-12-31T08:26:08.685Z,1003.01
2022-12-31T08:26:54.719Z,1003.28
2022-12-31T08:27:40.671Z,1003.28
2022-12-31T08:28:26.683Z,1003.18
2022-12-31T08:29:12.682Z,1003.01
2022-12-31T08:29:58.681Z,1003.01
2022-12-31T08:30:44.766Z,1003.18
2022-12-31T08:31:30.692Z,1003.39
2022-12-31T08:32:16.756Z,1003.28
2022-12-31T08:33:02.794Z,1003.28
2022-12-31T08:33:48.691Z,1003.28
2022-12-31T08:34:34.717Z,1003.11
2022-12-31T08:35:20.721Z,1003.18
2022-12-31T08:36:06.721Z,1003.18
2022-12-31T08:36:52.667Z,1003.39
2022-12-31T08:37:38.788Z,1003.18
2022-12-31T08:38:24.727Z,1003.39
2022-12-31T08:39:10.741Z,1003.39
2022-12-31T08:39:56.793Z,1003.18
2022-12-31T08:40:42.713Z,1003.18
2022-12-31T08:41:28.742Z,1003.18
2022-12-31T08:42:15.407Z,1003.18
2022-12-31T08:43:00.807Z,1003.18
2022-12-31T08:43:46.825Z,1003.11
2022-12-31T08:44:32.786Z,1003.18
2022-12-31T08:45:18.797Z,1003.01
2022-12-31T08:46:04.961Z,1003.01
2022-12-31T08:46:50.931Z,1003.11
2022-12-31T08:47:38.623Z,1003.28
2022-12-31T08:48:22.856Z,1003.01
2022-12-31T08:49:08.857Z,1003.01
2022-12-31T08:49:54.840Z,1003.28
2022-12-31T08:50:40.741Z,1003.39
2022-12-31T08:51:26.844Z,1003.28
2022-12-31T08:52:12.827Z,1003.28
2022-12-31T08:52:58.832Z,1003.28
2022-12-31T08:53:44.825Z,1003.18
2022-12-31T08:54:30.845Z,1003.18
2022-12-31T08:55:16.832Z,1003.28
2022-12-31T08:56:02.864Z,1003.28
2022-12-31T08:56:50.592Z,1003.11
2022-12-31T08:57:34.935Z,1003.18
2022-12-31T08:58:20.865Z,1003.18
2022-12-31T08:59:06.840Z,1003.18
2022-12-31T08:59:52.793Z,1003.11
2022-12-31T09:00:38.961Z,1003.28
2022-12-31T09:01:24.998Z,1003.39
2022-12-31T09:02:10.968Z,1003.39
2022-12-31T09:02:56.845Z,1003.01
2022-12-31T09:03:42.890Z,1003.18
2022-12-31T09:04:28.924Z,1002.91
2022-12-31T09:05:15.380Z,1003.01
2022-12-31T09:06:00.905Z,1003.01
2022-12-31T09:06:46.881Z,1003.18
2022-12-31T09:07:32.933Z,1003.39
2022-12-31T09:08:18.902Z,1003.18
2022-12-31T09:09:05.006Z,1003.18
2022-12-31T09:09:50.891Z,1003.18
2022-12-31T09:10:36.890Z,1003.18
2022-12-31T09:11:23.604Z,1003.18
2022-12-31T09:12:08.918Z,1003.18
2022-12-31T09:12:54.893Z,1003.11
2022-12-31T09:13:40.894Z,1003.18
2022-12-31T09:14:26.896Z,1003.39
2022-12-31T09:15:13.033Z,1003.18
2022-12-31T09:15:58.885Z,1003.18
2022-12-31T09:16:45.003Z,1003.28
2022-12-31T09:17:30.999Z,1003.59
2022-12-31T09:18:16.991Z,1003.39